createdAt,value
2022-11-10T00:01:06.777Z,11.98
2022-11-10T00:03:34.796Z,15.10
2022-11-10T00:06:05.989Z,13.57
2022-11-10T00:08:33.896Z,10.73
2022-11-10T00:11:06.669Z,13.30
2022-11-10T00:13:35.655Z,13.88
2022-11-10T00:16:22.841Z,15.68
2022-11-10T00:18:50.681Z,15.38
2022-11-10T00:21:19.131Z,10.30
2022-11-10T00:23:47.813Z,9.40
2022-11-10T00:26:19.415Z,11.63
2022-11-10T00:28:47.285Z,10.20
2022-11-10T00:31:14.698Z,11.02
2022-11-10T00:33:43.692Z,8.45
2022-11-10T00:36:11.496Z,8.32
2022-11-10T00:38:38.850Z,8.55
2022-11-10T00:41:06.422Z,10.20
2022-11-10T00:43:34.609Z,9.50
2022-11-10T00:46:02.235Z,10.45
2022-11-10T00:48:29.691Z,9.60
2022-11-10T00:50:57.514Z,9.30
2022-11-10T00:53:25.230Z,7.82
2022-11-10T00:55:53.040Z,10.32
2022-11-10T00:58:20.312Z,11.68
2022-11-10T01:00:48.107Z,13.50
2022-11-10T01:03:16.345Z,15.00
2022-11-10T01:05:44.329Z,9.52
2022-11-10T01:08:12.401Z,10.43
2022-11-10T01:10:40.034Z,7.13
2022-11-10T01:13:07.790Z,9.57
2022-11-10T01:15:35.125Z,5.68
2022-11-10T01:18:02.594Z,6.13
2022-11-10T01:20:29.897Z,5.85
2022-11-10T01:22:57.185Z,5.07
2022-11-10T01:25:24.762Z,5.07
2022-11-10T01:27:52.459Z,6.68
2022-11-10T01:30:20.107Z,5.15
2022-11-10T01:32:47.593Z,5.05
2022-11-10T01:35:15.136Z,3.88
2022-11-10T01:37:42.801Z,2.10
2022-11-10T01:40:10.690Z,3.78
2022-11-10T01:42:50.269Z,2.80
2022-11-10T01:45:24.279Z,3.72
2022-11-10T01:47:53.248Z,5.05
2022-11-10T01:50:21.475Z,5.70
2022-11-10T01:52:50.249Z,12.23
2022-11-10T01:55:18.292Z,6.88
2022-11-10T01:57:46.491Z,3.25
2022-11-10T02:00:14.673Z,6.45
2022-11-10T02:02:48.023Z,5.38
2022-11-10T02:05:15.729Z,3.05
2022-11-10T02:07:43.515Z,4.68
2022-11-10T02:10:15.531Z,3.88
2022-11-10T02:12:42.966Z,4.10
2022-11-10T02:15:12.748Z,6.68
2022-11-10T02:17:40.298Z,5.05
2022-11-10T02:20:10.456Z,5.85
2022-11-10T02:22:38.263Z,8.48
2022-11-10T02:25:06.039Z,8.18
2022-11-10T02:27:33.693Z,6.68
2022-11-10T02:30:01.823Z,5.28
2022-11-10T02:32:29.312Z,6.90
2022-11-10T02:34:57.003Z,7.80
2022-11-10T02:37:24.480Z,4.97
2022-11-10T02:39:52.182Z,6.00
2022-11-10T02:42:19.623Z,4.97
2022-11-10T02:44:47.122Z,3.17
2022-11-10T02:47:14.552Z,4.38
2022-11-10T02:49:42.135Z,4.70
2022-11-10T02:52:09.652Z,4.18
2022-11-10T02:54:37.121Z,4.43
2022-11-10T02:57:04.666Z,5.78
2022-11-10T02:59:32.368Z,6.45
2022-11-10T03:01:59.836Z,3.08
2022-11-10T03:04:27.516Z,4.05
2022-11-10T03:06:55.300Z,7.78
2022-11-10T03:09:22.791Z,7.90
2022-11-10T03:11:50.097Z,7.78
2022-11-10T03:14:17.473Z,4.43
2022-11-10T03:16:45.253Z,4.05
2022-11-10T03:19:12.756Z,4.13
2022-11-10T03:21:40.031Z,4.47
2022-11-10T03:24:07.471Z,4.72
2022-11-10T03:26:34.804Z,11.00
2022-11-10T03:29:02.351Z,5.03
2022-11-10T03:31:29.921Z,3.92
2022-11-10T03:33:57.588Z,5.05
2022-11-10T03:36:25.298Z,5.32
2022-11-10T03:38:52.948Z,8.25
2022-11-10T03:41:20.971Z,5.85
2022-11-10T03:43:48.942Z,4.25
2022-11-10T03:46:16.918Z,5.00
2022-11-10T03:48:47.494Z,4.85
2022-11-10T03:51:19.700Z,8.13
2022-11-10T03:53:47.114Z,5.57
2022-11-10T03:56:14.853Z,3.83
2022-11-10T03:58:42.418Z,7.70
2022-11-10T04:01:10.040Z,3.25
2022-11-10T04:03:37.450Z,7.68
2022-11-10T04:06:23.385Z,8.40
2022-11-10T04:08:59.970Z,8.57
2022-11-10T04:11:47.418Z,5.85
2022-11-10T04:14:34.211Z,7.45
2022-11-10T04:17:01.748Z,6.00
2022-11-10T04:19:29.447Z,12.20
2022-11-10T04:21:57.355Z,8.85
2022-11-10T04:24:25.206Z,8.95
2022-11-10T04:26:52.674Z,4.78
2022-11-10T04:29:20.922Z,4.68
2022-11-10T04:31:48.298Z,5.90
2022-11-10T04:34:16.536Z,5.30
2022-11-10T04:36:44.766Z,7.43
2022-11-10T04:39:12.421Z,6.45
2022-11-10T04:41:39.956Z,8.57
2022-11-10T04:44:07.628Z,5.25
2022-11-10T04:46:38.447Z,7.47
2022-11-10T04:49:06.711Z,11.85
2022-11-10T04:51:35.272Z,5.70
2022-11-10T04:54:02.904Z,5.03
2022-11-10T04:56:30.494Z,5.93
2022-11-10T04:58:58.240Z,8.73
2022-11-10T05:01:27.357Z,5.47
2022-11-10T05:03:55.544Z,7.03
2022-11-10T05:06:23.444Z,5.00
2022-11-10T05:08:51.783Z,8.32
2022-11-10T05:11:19.243Z,6.07
2022-11-10T05:13:46.795Z,8.65
2022-11-10T05:16:14.434Z,4.57
2022-11-10T05:18:42.630Z,5.20
2022-11-10T05:21:10.298Z,5.47
2022-11-10T05:23:44.570Z,5.82
2022-11-10T05:26:13.718Z,7.28
2022-11-10T05:28:42.054Z,8.13
2022-11-10T05:31:09.704Z,8.98
2022-11-10T05:33:38.201Z,7.18
2022-11-10T05:36:07.291Z,6.63
2022-11-10T05:38:39.078Z,5.28
2022-11-10T05:41:09.486Z,7.32
2022-11-10T05:43:37.323Z,5.35
2022-11-10T05:46:04.822Z,7.68
2022-11-10T05:48:32.183Z,8.75
2022-11-10T05:50:59.867Z,5.47
2022-11-10T05:53:27.447Z,5.95
2022-11-10T05:55:54.773Z,7.53
2022-11-10T05:58:22.262Z,13.07
2022-11-10T06:00:49.632Z,5.60
2022-11-10T06:03:18.110Z,6.72
2022-11-10T06:05:46.545Z,8.45
2022-11-10T06:08:14.048Z,6.40
2022-11-10T06:10:41.697Z,6.65
2022-11-10T06:13:09.239Z,5.05
2022-11-10T06:15:36.687Z,9.00
2022-11-10T06:18:04.010Z,7.28
2022-11-10T06:20:31.730Z,6.32
2022-11-10T06:22:59.762Z,5.93
2022-11-10T06:25:27.447Z,5.82
2022-11-10T06:27:55.116Z,6.72
2022-11-10T06:30:22.509Z,7.45
2022-11-10T06:32:50.515Z,5.28
2022-11-10T06:35:17.998Z,5.47
2022-11-10T06:37:45.400Z,6.97
2022-11-10T06:40:14.565Z,9.52
2022-11-10T06:42:42.196Z,8.77
2022-11-10T06:45:09.818Z,11.68
2022-11-10T06:47:37.520Z,7.82
2022-11-10T06:50:04.897Z,9.43
2022-11-10T06:52:32.484Z,6.05
2022-11-10T06:54:59.989Z,6.28
2022-11-10T06:57:27.636Z,6.35
2022-11-10T06:59:55.329Z,5.55
2022-11-10T07:02:22.760Z,9.38
2022-11-10T07:04:51.021Z,5.80
2022-11-10T07:07:18.750Z,11.88
2022-11-10T07:09:46.009Z,9.90
2022-11-10T07:12:13.482Z,5.68
2022-11-10T07:14:41.032Z,10.07
2022-11-10T07:17:08.532Z,8.93
2022-11-10T07:19:36.034Z,6.38
2022-11-10T07:22:08.010Z,10.65
2022-11-10T07:24:38.140Z,8.88
2022-11-10T07:27:05.869Z,9.40
2022-11-10T07:29:33.238Z,8.18
2022-11-10T07:32:00.688Z,10.90
2022-11-10T07:34:28.437Z,10.32
2022-11-10T07:36:55.917Z,12.93
2022-11-10T07:39:23.569Z,11.57
2022-11-10T07:41:52.688Z,9.90
2022-11-10T07:44:20.651Z,8.40
2022-11-10T07:46:48.091Z,7.40
2022-11-10T07:49:15.804Z,10.75
2022-11-10T07:51:43.638Z,9.05
2022-11-10T07:54:11.228Z,7.07
2022-11-10T07:56:38.935Z,5.95
2022-11-10T07:59:06.622Z,9.00
2022-11-10T08:01:34.335Z,10.75
2022-11-10T08:04:02.166Z,6.15
2022-11-10T08:06:34.891Z,9.30
2022-11-10T08:09:03.566Z,10.88
2022-11-10T08:11:31.291Z,8.18
2022-11-10T08:13:58.746Z,8.43
2022-11-10T08:16:26.189Z,7.18
2022-11-10T08:18:53.936Z,6.82
2022-11-10T08:21:21.336Z,10.45
2022-11-10T08:23:49.145Z,9.00
2022-11-10T08:26:18.056Z,8.88
2022-11-10T08:28:45.956Z,6.55
2022-11-10T08:31:13.436Z,7.07
2022-11-10T08:33:40.772Z,11.18
2022-11-10T08:36:08.527Z,8.35
2022-11-10T08:38:36.265Z,13.93
2022-11-10T08:41:04.104Z,9.38
2022-11-10T08:43:31.799Z,9.02
2022-11-10T08:45:59.540Z,9.75
2022-11-10T08:48:27.019Z,6.35
2022-11-10T08:50:54.635Z,5.30
2022-11-10T08:53:25.424Z,8.70
2022-11-10T08:55:56.231Z,9.80
2022-11-10T08:58:25.155Z,10.70
2022-11-10T09:00:52.664Z,7.50
2022-11-10T09:03:24.478Z,9.77
2022-11-10T09:05:57.972Z,5.22
2022-11-10T09:08:25.543Z,8.00
2022-11-10T09:10:52.949Z,4.63
2022-11-10T09:13:29.629Z,19.30
2022-11-10T09:16:01.296Z,11.55
2022-11-10T09:18:29.430Z,7.72
2022-11-10T09:20:57.145Z,10.55
2022-11-10T09:23:25.701Z,9.77
2022-11-10T09:25:54.370Z,5.57
2022-11-10T09:28:22.437Z,7.40
2022-11-10T09:30:50.468Z,6.40
2022-11-10T09:33:18.216Z,7.07
2022-11-10T09:35:45.695Z,8.52
2022-11-10T09:38:13.250Z,9.10
2022-11-10T09:40:58.899Z,6.10
2022-11-10T09:43:32.661Z,6.57
2022-11-10T09:46:01.644Z,11.02
2022-11-10T09:48:34.051Z,8.57
2022-11-10T09:51:20.109Z,6.60
2022-11-10T09:54:01.979Z,4.47
2022-11-10T09:56:37.270Z,8.00
2022-11-10T09:59:07.758Z,10.75
2022-11-10T10:01:41.579Z,4.05
2022-11-10T10:04:09.144Z,6.32
2022-11-10T10:07:04.905Z,7.38
2022-11-10T10:09:39.416Z,7.78
2022-11-10T10:12:16.023Z,5.15
2022-11-10T10:14:52.750Z,7.22
2022-11-10T10:17:37.084Z,8.90
2022-11-10T10:20:26.549Z,5.80
2022-11-10T10:23:02.169Z,11.40
2022-11-10T10:25:30.119Z,10.43
2022-11-10T10:28:07.715Z,6.57
2022-11-10T10:30:35.259Z,8.38
2022-11-10T10:33:09.869Z,2.95
2022-11-10T10:35:41.620Z,10.65
2022-11-10T10:38:17.806Z,7.35
2022-11-10T10:40:46.418Z,6.47
2022-11-10T10:43:13.902Z,8.60
2022-11-10T10:45:42.951Z,7.55
2022-11-10T10:48:39.423Z,5.40
2022-11-10T10:51:07.092Z,5.43
2022-11-10T10:53:45.620Z,7.32
2022-11-10T10:56:26.059Z,5.55
2022-11-10T10:58:55.158Z,9.68
2022-11-10T11:01:33.011Z,8.50
2022-11-10T11:04:01.335Z,6.57
2022-11-10T11:06:29.939Z,6.32
2022-11-10T11:09:01.566Z,9.63
2022-11-10T11:11:33.553Z,5.65
2022-11-10T11:14:19.438Z,7.05
2022-11-10T11:16:56.672Z,5.70
2022-11-10T11:19:28.448Z,7.72
2022-11-10T11:22:14.981Z,2.03
2022-11-10T11:25:02.202Z,6.53
2022-11-10T11:27:49.380Z,2.85
2022-11-10T11:30:18.669Z,4.32
2022-11-10T11:32:46.102Z,7.32
2022-11-10T11:35:25.732Z,8.18
2022-11-10T11:38:12.126Z,4.20
2022-11-10T11:40:54.927Z,5.03
2022-11-10T11:43:22.346Z,3.08
2022-11-10T11:45:54.957Z,4.22
2022-11-10T11:48:35.660Z,9.15
2022-11-10T11:51:21.810Z,7.75
2022-11-10T11:53:55.523Z,6.10
2022-11-10T11:56:34.077Z,11.45
2022-11-10T11:59:10.879Z,5.53
2022-11-10T12:01:41.341Z,4.22
2022-11-10T12:04:14.686Z,6.45
2022-11-10T12:06:57.543Z,6.25
2022-11-10T12:09:34.465Z,5.07
2022-11-10T12:12:20.024Z,4.03
2022-11-10T12:14:59.762Z,6.18
2022-11-10T12:17:35.678Z,7.10
2022-11-10T12:20:21.803Z,4.00
2022-11-10T12:23:02.156Z,6.72
2022-11-10T12:25:29.886Z,4.68
2022-11-10T12:28:14.190Z,6.47
2022-11-10T12:30:42.777Z,3.90
2022-11-10T12:33:16.376Z,5.82
2022-11-10T12:35:45.575Z,6.40
2022-11-10T12:38:22.656Z,4.47
2022-11-10T12:40:51.233Z,6.60
2022-11-10T12:43:19.047Z,5.80
2022-11-10T12:45:48.409Z,6.13
2022-11-10T12:48:16.702Z,5.45
2022-11-10T12:50:56.602Z,4.63
2022-11-10T12:53:25.112Z,8.57
2022-11-10T12:56:09.416Z,2.72
2022-11-10T12:58:37.734Z,4.63
2022-11-10T13:01:07.575Z,4.70
2022-11-10T13:03:38.921Z,13.13
2022-11-10T13:06:07.397Z,6.03
2022-11-10T13:08:35.206Z,3.20
2022-11-10T13:11:11.812Z,6.03
2022-11-10T13:13:46.681Z,6.35
2022-11-10T13:16:33.282Z,2.63
2022-11-10T13:19:01.040Z,4.60
2022-11-10T13:21:47.266Z,7.90
2022-11-10T13:24:20.690Z,8.15
2022-11-10T13:26:49.689Z,3.73
2022-11-10T13:29:22.818Z,5.43
2022-11-10T13:31:53.725Z,4.85
2022-11-10T13:34:37.907Z,4.07
2022-11-10T13:37:25.457Z,5.30
2022-11-10T13:39:53.683Z,2.75
2022-11-10T13:42:24.873Z,6.47
2022-11-10T13:44:54.312Z,5.97
2022-11-10T13:47:35.431Z,2.85
2022-11-10T13:50:12.704Z,4.45
2022-11-10T13:52:40.133Z,4.13
2022-11-10T13:55:16.312Z,4.32
2022-11-10T13:57:57.979Z,3.47
2022-11-10T14:00:28.345Z,9.68
2022-11-10T14:02:57.034Z,4.38
2022-11-10T14:05:30.958Z,5.57
2022-11-10T14:08:07.236Z,6.30
2022-11-10T14:10:44.336Z,5.18
2022-11-10T14:13:35.509Z,3.42
2022-11-10T14:16:03.046Z,3.67
2022-11-10T14:18:39.883Z,3.83
2022-11-10T14:21:07.849Z,2.35
2022-11-10T14:23:46.827Z,2.78
2022-11-10T14:26:24.543Z,5.80
2022-11-10T14:28:52.245Z,5.13
2022-11-10T14:31:21.155Z,4.50
2022-11-10T14:33:58.775Z,5.97
2022-11-10T14:36:26.825Z,5.32
2022-11-10T14:38:54.537Z,2.28
2022-11-10T14:41:23.054Z,4.50
2022-11-10T14:44:00.944Z,2.88
2022-11-10T14:46:28.413Z,4.75
2022-11-10T14:49:00.497Z,4.68
2022-11-10T14:51:29.609Z,5.43
2022-11-10T14:53:58.363Z,3.30
2022-11-10T14:56:37.563Z,4.68
2022-11-10T14:59:06.562Z,3.78
2022-11-10T15:01:35.050Z,4.10
2022-11-10T15:04:03.917Z,3.72
2022-11-10T15:06:32.112Z,4.88
2022-11-10T15:08:59.664Z,3.50
2022-11-10T15:11:39.278Z,5.43
2022-11-10T15:14:26.683Z,5.00
2022-11-10T15:17:04.465Z,4.35
2022-11-10T15:19:33.213Z,4.00
2022-11-10T15:22:14.187Z,5.75
2022-11-10T15:24:42.819Z,4.32
2022-11-10T15:27:30.497Z,11.40
2022-11-10T15:29:58.973Z,4.32
2022-11-10T15:32:32.202Z,4.72
2022-11-10T15:35:10.570Z,6.68
2022-11-10T15:37:38.012Z,6.13
2022-11-10T15:40:23.982Z,4.35
2022-11-10T15:43:10.618Z,4.97
2022-11-10T15:45:38.959Z,7.47
2022-11-10T15:48:11.172Z,10.68
2022-11-10T15:50:38.691Z,4.63
2022-11-10T15:53:07.603Z,7.45
2022-11-10T15:55:35.784Z,4.40
2022-11-10T15:58:03.061Z,7.40
2022-11-10T16:00:30.475Z,6.85
2022-11-10T16:02:59.253Z,4.80
2022-11-10T16:05:26.622Z,9.45
2022-11-10T16:07:54.364Z,5.97
2022-11-10T16:10:21.991Z,3.08
2022-11-10T16:12:49.737Z,4.63
2022-11-10T16:15:19.243Z,5.68
2022-11-10T16:17:46.938Z,2.85
2022-11-10T16:20:15.350Z,6.43
2022-11-10T16:22:42.663Z,4.50
2022-11-10T16:25:16.831Z,6.88
2022-11-10T16:27:48.342Z,5.10
2022-11-10T16:30:16.047Z,4.38
2022-11-10T16:32:44.003Z,4.03
2022-11-10T16:35:15.167Z,5.78
2022-11-10T16:37:43.786Z,6.43
2022-11-10T16:40:15.839Z,7.70
2022-11-10T16:42:44.179Z,12.15
2022-11-10T16:45:16.412Z,9.38
2022-11-10T16:47:44.895Z,10.98
2022-11-10T16:50:30.444Z,8.98
2022-11-10T16:52:58.133Z,8.65
2022-11-10T16:55:25.734Z,4.65
2022-11-10T16:57:53.212Z,8.52
2022-11-10T17:00:21.057Z,9.85
2022-11-10T17:03:08.767Z,6.40
2022-11-10T17:05:36.470Z,7.63
2022-11-10T17:08:04.623Z,4.65
2022-11-10T17:10:32.163Z,6.97
2022-11-10T17:12:59.814Z,12.27
2022-11-10T17:15:27.310Z,9.07
2022-11-10T17:17:55.599Z,9.38
2022-11-10T17:20:29.564Z,9.93
2022-11-10T17:22:57.054Z,18.25
2022-11-10T17:25:27.044Z,25.17
2022-11-10T17:27:54.799Z,30.45
2022-11-10T17:30:22.388Z,37.20
2022-11-10T17:33:04.563Z,33.80
2022-11-10T17:35:36.312Z,45.83
2022-11-10T17:38:07.229Z,36.58
2022-11-10T17:40:36.060Z,31.20
2022-11-10T17:43:03.512Z,43.90
2022-11-10T17:45:30.788Z,27.00
2022-11-10T17:47:58.589Z,29.10
2022-11-10T17:50:26.088Z,25.55
2022-11-10T17:52:53.475Z,19.55
2022-11-10T17:55:22.229Z,17.23
2022-11-10T17:57:49.528Z,13.57
2022-11-10T18:00:18.430Z,15.55
2022-11-10T18:02:49.961Z,10.07
2022-11-10T18:05:21.523Z,13.27
2022-11-10T18:07:52.429Z,13.05
2022-11-10T18:10:19.920Z,15.85
2022-11-10T18:12:47.418Z,16.50
2022-11-10T18:15:16.215Z,18.67
2022-11-10T18:17:44.293Z,17.48
2022-11-10T18:20:12.569Z,20.23
2022-11-10T18:22:40.265Z,30.25
2022-11-10T18:25:11.292Z,29.90
2022-11-10T18:27:38.793Z,27.23
2022-11-10T18:30:06.877Z,28.63
2022-11-10T18:32:34.392Z,23.52
2022-11-10T18:35:01.882Z,23.80
2022-11-10T18:37:29.329Z,18.55
2022-11-10T18:39:56.615Z,19.50
2022-11-10T18:42:24.784Z,19.85
2022-11-10T18:44:52.971Z,20.42
2022-11-10T18:47:20.810Z,17.38
2022-11-10T18:49:48.496Z,15.68
2022-11-10T18:52:15.876Z,21.23
2022-11-10T18:54:43.583Z,19.05
2022-11-10T18:57:16.901Z,17.25
2022-11-10T18:59:44.366Z,19.77
2022-11-10T19:02:12.577Z,19.02
2022-11-10T19:04:40.388Z,19.98
2022-11-10T19:07:08.314Z,21.85
2022-11-10T19:09:35.808Z,21.15
2022-11-10T19:12:03.241Z,20.08
2022-11-10T19:14:30.901Z,18.30
2022-11-10T19:16:58.696Z,21.13
2022-11-10T19:19:26.384Z,15.57
2022-11-10T19:21:53.888Z,20.77
2022-11-10T19:24:27.819Z,19.50
2022-11-10T19:26:56.306Z,17.67
2022-11-10T19:29:23.977Z,16.15
2022-11-10T19:31:51.391Z,10.63
2022-11-10T19:34:18.999Z,12.38
2022-11-10T19:36:46.950Z,18.75
2022-11-10T19:39:14.919Z,21.63
2022-11-10T19:41:44.029Z,24.60
2022-11-10T19:44:11.546Z,22.85
2022-11-10T19:46:39.364Z,22.23
2022-11-10T19:49:07.125Z,20.20
2022-11-10T19:51:34.837Z,17.55
2022-11-10T19:54:03.195Z,17.20
2022-11-10T19:56:32.379Z,20.35
2022-11-10T19:59:00.263Z,16.40
2022-11-10T20:01:28.003Z,18.02
2022-11-10T20:03:55.849Z,20.98
2022-11-10T20:06:23.943Z,22.08
2022-11-10T20:08:51.584Z,21.85
2022-11-10T20:11:21.428Z,20.23
2022-11-10T20:13:54.922Z,21.95
2022-11-10T20:16:23.443Z,20.77
2022-11-10T20:18:51.105Z,23.98
2022-11-10T20:21:21.334Z,21.13
2022-11-10T20:23:53.477Z,24.92
2022-11-10T20:26:21.393Z,24.85
2022-11-10T20:28:48.799Z,27.38
2022-11-10T20:31:21.496Z,25.48
2022-11-10T20:33:49.716Z,24.45
2022-11-10T20:36:20.666Z,23.90
2022-11-10T20:38:48.899Z,25.70
2022-11-10T20:41:17.844Z,24.80
2022-11-10T20:43:45.517Z,29.70
2022-11-10T20:46:33.428Z,19.75
2022-11-10T20:49:01.593Z,22.58
2022-11-10T20:51:29.157Z,20.92
2022-11-10T20:53:57.225Z,22.77
2022-11-10T20:56:29.363Z,25.65
2022-11-10T20:58:57.842Z,26.05
2022-11-10T21:01:25.704Z,15.93
2022-11-10T21:03:54.123Z,17.73
2022-11-10T21:06:21.469Z,16.00
2022-11-10T21:08:48.989Z,16.27
2022-11-10T21:11:36.359Z,17.17
2022-11-10T21:14:04.083Z,14.30
2022-11-10T21:16:31.659Z,11.50
2022-11-10T21:18:59.328Z,16.83
2022-11-10T21:21:34.112Z,10.48
2022-11-10T21:24:02.166Z,12.05
2022-11-10T21:26:29.735Z,13.85
2022-11-10T21:28:58.223Z,12.57
2022-11-10T21:31:25.880Z,12.13
2022-11-10T21:33:56.673Z,11.40
2022-11-10T21:36:29.193Z,11.48
2022-11-10T21:38:57.647Z,9.95
2022-11-10T21:41:25.408Z,12.07
2022-11-10T21:43:52.807Z,11.70
2022-11-10T21:46:20.393Z,10.98
2022-11-10T21:48:47.679Z,16.38
2022-11-10T21:51:15.111Z,13.15
2022-11-10T21:53:43.097Z,12.45
2022-11-10T21:56:12.129Z,45.33
2022-11-10T21:58:39.868Z,26.13
2022-11-10T22:01:19.582Z,13.10
2022-11-10T22:03:47.351Z,11.73
2022-11-10T22:06:16.560Z,13.05
2022-11-10T22:08:44.997Z,16.13
2022-11-10T22:11:34.388Z,20.10
2022-11-10T22:14:20.828Z,14.98
2022-11-10T22:17:08.102Z,14.95
2022-11-10T22:19:36.420Z,12.13
2022-11-10T22:22:04.551Z,14.88
2022-11-10T22:24:33.976Z,14.70
2022-11-10T22:27:02.430Z,13.85
2022-11-10T22:29:31.911Z,10.90
2022-11-10T22:32:00.609Z,12.23
2022-11-10T22:34:27.964Z,18.20
2022-11-10T22:36:55.321Z,17.50
2022-11-10T22:39:23.031Z,15.38
2022-11-10T22:42:09.481Z,13.23
2022-11-10T22:44:37.194Z,12.10
2022-11-10T22:47:04.793Z,11.60
2022-11-10T22:49:32.456Z,10.95
2022-11-10T22:51:59.966Z,10.30
2022-11-10T22:54:27.329Z,10.82
2022-11-10T22:56:55.057Z,8.57
2022-11-10T22:59:22.866Z,18.13
2022-11-10T23:01:50.389Z,11.65
2022-11-10T23:04:18.044Z,8.35
2022-11-10T23:06:45.740Z,14.35
2022-11-10T23:09:13.115Z,12.77
2022-11-10T23:11:40.513Z,10.05
2022-11-10T23:14:08.090Z,9.30
2022-11-10T23:16:36.036Z,9.57
2022-11-10T23:19:03.778Z,6.93
2022-11-10T23:21:31.763Z,5.75
2022-11-10T23:23:59.339Z,11.43
2022-11-10T23:26:29.232Z,8.55
2022-11-10T23:28:56.937Z,10.65
2022-11-10T23:31:25.916Z,12.35
2022-11-10T23:33:54.786Z,8.18
2022-11-10T23:36:23.408Z,6.72
2022-11-10T23:38:51.220Z,6.10
2022-11-10T23:41:20.337Z,7.70
2022-11-10T23:43:48.182Z,10.52
2022-11-10T23:46:15.902Z,11.95
2022-11-10T23:48:43.371Z,11.00
2022-11-10T23:51:11.788Z,12.07
2022-11-10T23:53:39.464Z,11.30
2022-11-10T23:56:08.498Z,12.63
2022-11-10T23:58:36.231Z,12.25
